Time;durP1;ratioP1;P1;durP2;ratioP2;P2;SDS_P1;SDS_P2;PMS_P1;PMS_P2;Temp;Humidity;BMP_temperature;BMP_pressure;BME280_temperature;BME280_humidity;BME280_pressure;Samples;Min_cycle;Max_cycle;Signal;HPM_P1;HPM_P2
2022/06/06 00:01:59;;;;;;;10.80;7.82;;;15.90;99.90;;;;;;5031043;28;20046;-64
2022/06/06 00:04:27;;;;;;;8.50;6.97;;;15.80;99.90;;;;;;5012998;28;20049;-65
2022/06/06 00:06:55;;;;;;;9.00;7.10;;;16.10;99.90;;;;;;5011986;28;20431;-65
2022/06/06 00:09:21;;;;;;;9.45;6.47;;;15.90;99.90;;;;;;5027821;28;20116;-64
2022/06/06 00:11:46;;;;;;;8.15;6.20;;;15.90;99.90;;;;;;5023554;28;20372;-65
2022/06/06 00:14:14;;;;;;;7.60;6.00;;;16.10;99.90;;;;;;5028916;28;20127;-65
2022/06/06 00:16:39;;;;;;;8.63;6.25;;;15.80;99.90;;;;;;5011195;28;20066;-64
2022/06/06 00:19:05;;;;;;;8.68;6.30;;;15.80;99.90;;;;;;5012534;28;20077;-65
2022/06/06 00:21:33;;;;;;;10.02;7.10;;;15.80;99.90;;;;;;5011520;28;20041;-65
2022/06/06 00:23:59;;;;;;;8.85;6.63;;;15.70;99.90;;;;;;5012713;28;20049;-65
2022/06/06 00:26:30;;;;;;;9.45;7.00;;;15.80;99.90;;;;;;5016558;28;20041;-65
2022/06/06 00:28:56;;;;;;;8.07;5.82;;;15.70;99.90;;;;;;5032621;28;20159;-65
2022/06/06 00:36:53;;;;;;;8.05;5.45;;;15.70;99.90;;;;;;5024962;28;20042;-65
2022/06/06 00:39:18;;;;;;;6.82;4.95;;;15.50;99.90;;;;;;5024751;28;20095;-65
2022/06/06 00:41:47;;;;;;;7.53;5.40;;;15.50;99.90;;;;;;5011692;28;20085;-65
2022/06/06 00:44:19;;;;;;;6.38;5.00;;;15.70;99.90;;;;;;5023001;28;20052;-65
2022/06/06 00:46:50;;;;;;;6.68;5.63;;;15.60;99.90;;;;;;5030790;28;20068;-65
2022/06/06 00:49:39;;;;;;;6.80;5.28;;;15.60;99.90;;;;;;5003498;28;20053;-65
2022/06/06 00:52:11;;;;;;;7.65;5.07;;;15.50;99.90;;;;;;5010908;28;20041;-65
2022/06/06 00:54:38;;;;;;;5.68;5.00;;;15.40;99.90;;;;;;5012731;28;20395;-65
2022/06/06 00:57:10;;;;;;;9.25;4.85;;;15.50;99.90;;;;;;5016521;28;20049;-65
2022/06/06 00:59:37;;;;;;;7.80;5.38;;;15.60;99.90;;;;;;5032026;28;20499;-65
2022/06/06 01:02:04;;;;;;;7.50;4.63;;;15.70;99.90;;;;;;5031129;28;20045;-64
2022/06/06 01:04:31;;;;;;;6.07;4.90;;;15.50;99.90;;;;;;5017966;28;20441;-64
2022/06/06 01:06:57;;;;;;;8.27;5.65;;;15.70;99.90;;;;;;5014027;28;20037;-64
2022/06/06 01:09:25;;;;;;;7.00;5.95;;;15.40;99.90;;;;;;5025899;28;20034;-65
2022/06/06 01:11:59;;;;;;;8.18;5.80;;;15.30;99.90;;;;;;5010913;28;20049;-65
2022/06/06 01:14:28;;;;;;;9.25;6.90;;;15.40;99.90;;;;;;5029392;28;20045;-65
2022/06/06 01:17:38;;;;;;;7.85;6.78;;;15.40;99.90;;;;;;5019741;28;20046;-65
2022/06/06 01:20:28;;;;;;;8.75;6.28;;;15.30;99.90;;;;;;4951884;28;20043;-65
2022/06/06 01:23:15;;;;;;;9.05;6.80;;;15.40;99.90;;;;;;4935475;29;20040;-65
2022/06/06 01:26:02;;;;;;;8.73;6.65;;;15.40;99.90;;;;;;5013626;28;20511;-67
2022/06/06 01:28:42;;;;;;;9.07;6.85;;;15.40;99.90;;;;;;5011010;28;20444;-65
2022/06/06 01:31:14;;;;;;;11.93;7.07;;;15.30;99.90;;;;;;5011929;28;20042;-64
2022/06/06 01:33:52;;;;;;;9.32;6.50;;;15.30;99.90;;;;;;5019791;28;20051;-64
2022/06/06 01:36:18;;;;;;;9.23;6.55;;;15.40;99.90;;;;;;5028853;28;20116;-64
2022/06/06 01:38:45;;;;;;;10.13;7.03;;;15.30;99.90;;;;;;5016077;28;20416;-65
2022/06/06 01:41:14;;;;;;;9.02;6.55;;;15.20;99.90;;;;;;5010469;28;20496;-64
2022/06/06 01:44:06;;;;;;;10.13;6.85;;;15.50;99.90;;;;;;5028012;28;20042;-65
2022/06/06 01:46:36;;;;;;;7.95;5.50;;;15.20;99.90;;;;;;5026391;28;20041;-64
2022/06/06 01:49:05;;;;;;;8.68;5.53;;;15.20;99.90;;;;;;5033984;28;20535;-65
2022/06/06 01:51:31;;;;;;;7.35;5.25;;;15.40;99.90;;;;;;5019367;28;20472;-65
2022/06/06 01:53:57;;;;;;;7.25;5.38;;;15.20;99.90;;;;;;5014224;28;20038;-64
2022/06/06 01:56:33;;;;;;;9.95;6.97;;;15.30;99.90;;;;;;5013609;28;20136;-64
2022/06/06 01:58:59;;;;;;;9.05;7.25;;;15.10;99.90;;;;;;5014392;28;20045;-64
2022/06/06 02:01:25;;;;;;;12.82;7.38;;;15.20;99.90;;;;;;5006760;28;20500;-64
2022/06/06 02:03:52;;;;;;;9.80;6.93;;;15.20;99.90;;;;;;5019433;28;20046;-64
2022/06/06 02:06:18;;;;;;;9.65;7.07;;;;;;;;;;5013718;28;20759;-65
2022/06/06 02:08:44;;;;;;;11.23;7.65;;;15.30;99.90;;;;;;5013758;28;20069;-65
2022/06/06 02:11:11;;;;;;;12.32;7.82;;;15.20;99.90;;;;;;5019107;28;20072;-64
2022/06/06 02:13:37;;;;;;;13.95;8.40;;;15.30;99.90;;;;;;5017256;28;20041;-65
2022/06/06 02:16:03;;;;;;;9.00;7.53;;;15.10;99.90;;;;;;5016861;28;20387;-64
2022/06/06 02:18:29;;;;;;;11.38;7.55;;;15.20;99.90;;;;;;5033358;28;20045;-64
2022/06/06 02:20:55;;;;;;;9.77;7.78;;;15.20;99.90;;;;;;5032725;28;20041;-64
2022/06/06 02:23:21;;;;;;;10.02;7.38;;;15.20;99.90;;;;;;5013775;28;20038;-64
2022/06/06 02:25:47;;;;;;;7.97;5.95;;;15.00;99.90;;;;;;5014638;28;20040;-64
2022/06/06 02:28:15;;;;;;;11.85;7.07;;;15.20;99.90;;;;;;5013696;28;20046;-65
2022/06/06 02:30:41;;;;;;;10.43;6.72;;;15.20;99.90;;;;;;5013350;28;20492;-64
2022/06/06 02:33:07;;;;;;;11.00;7.38;;;;;;;;;;5013507;28;20041;-64
2022/06/06 02:35:36;;;;;;;8.25;6.53;;;15.10;99.90;;;;;;5013350;28;20048;-64
2022/06/06 02:38:03;;;;;;;9.80;6.32;;;15.10;99.90;;;;;;5013089;28;20033;-65
2022/06/06 02:40:30;;;;;;;9.82;7.25;;;15.10;99.90;;;;;;5013209;28;20080;-64
2022/06/06 02:42:56;;;;;;;8.60;6.38;;;15.30;99.90;;;;;;5014557;28;20443;-65
2022/06/06 02:45:22;;;;;;;18.33;6.13;;;15.10;99.90;;;;;;5016016;28;20041;-65
2022/06/06 02:47:51;;;;;;;9.70;5.40;;;15.20;99.90;;;;;;5032712;28;20053;-65
2022/06/06 02:50:19;;;;;;;9.05;5.43;;;15.00;99.90;;;;;;5010837;28;20503;-65
2022/06/06 02:52:45;;;;;;;6.80;4.50;;;15.10;99.90;;;;;;5014123;28;20535;-65
2022/06/06 02:55:12;;;;;;;8.68;4.53;;;15.10;99.90;;;;;;5017471;28;20041;-65
2022/06/06 02:57:40;;;;;;;6.15;4.35;;;15.10;99.90;;;;;;5024355;28;20124;-65
2022/06/06 03:00:08;;;;;;;5.88;4.60;;;15.20;99.90;;;;;;5033639;28;20037;-65
2022/06/06 03:02:35;;;;;;;5.97;4.38;;;15.10;99.90;;;;;;5034100;28;20040;-65
2022/06/06 03:05:01;;;;;;;5.85;4.90;;;15.20;99.90;;;;;;5032572;28;20041;-65
2022/06/06 03:07:27;;;;;;;8.25;5.80;;;15.20;99.90;;;;;;5032749;28;20486;-65
2022/06/06 03:10:22;;;;;;;7.95;6.20;;;15.20;99.90;;;;;;5002466;28;20072;-65
2022/06/06 03:12:59;;;;;;;7.10;5.60;;;15.30;99.90;;;;;;5032750;28;20453;-65
2022/06/06 03:22:42;;;;;;;9.65;7.32;;;15.10;99.90;;;;;;5005843;28;20045;-65
2022/06/06 03:25:42;;;;;;;12.63;9.68;;;15.00;99.90;;;;;;5030923;28;20231;-64
2022/06/06 03:28:36;;;;;;;15.70;9.73;;;15.00;99.90;;;;;;5012802;28;20444;-65
2022/06/06 03:31:13;;;;;;;17.83;10.88;;;15.00;99.90;;;;;;5020553;28;20050;-64
2022/06/06 03:34:02;;;;;;;17.95;11.48;;;14.90;99.90;;;;;;5033242;28;20087;-65
2022/06/06 03:36:33;;;;;;;21.17;13.57;;;14.90;99.90;;;;;;5021070;28;20038;-65
2022/06/06 03:39:34;;;;;;;21.70;14.60;;;14.80;99.90;;;;;;5031123;28;20033;-65
2022/06/06 03:42:30;;;;;;;23.02;13.35;;;14.80;99.90;;;;;;5018527;28;20034;-64
2022/06/06 03:45:13;;;;;;;23.02;15.18;;;14.80;99.90;;;;;;5011947;28;20049;-64
2022/06/06 03:48:12;;;;;;;23.15;14.55;;;14.80;99.90;;;;;;5031182;28;20426;-64
2022/06/06 03:51:03;;;;;;;22.20;13.95;;;14.80;99.90;;;;;;5015854;28;20104;-64
2022/06/06 03:53:34;;;;;;;16.98;11.23;;;14.70;99.90;;;;;;5013500;28;20034;-65
2022/06/06 03:56:00;;;;;;;16.63;10.68;;;14.80;99.90;;;;;;5025907;28;20077;-65
2022/06/06 03:58:30;;;;;;;16.77;10.82;;;14.70;99.90;;;;;;5013562;28;20073;-65
2022/06/06 04:01:00;;;;;;;19.67;10.68;;;14.70;99.90;;;;;;5028533;28;20057;-65
2022/06/06 04:03:27;;;;;;;20.92;10.98;;;14.50;99.90;;;;;;5014811;28;20085;-64
2022/06/06 04:05:53;;;;;;;20.85;10.50;;;14.60;99.90;;;;;;5030959;28;20045;-64
2022/06/06 04:08:19;;;;;;;19.88;11.27;;;16.20;99.90;;;;;;5013119;28;20451;-64
2022/06/06 04:11:20;;;;;;;14.55;9.65;;;14.50;99.90;;;;;;5012979;28;20050;-65
2022/06/06 04:14:04;;;;;;;18.27;10.48;;;14.60;99.90;;;;;;5015001;28;20046;-64
2022/06/06 04:16:59;;;;;;;17.08;10.07;;;14.50;99.90;;;;;;5018104;28;20053;-64
2022/06/06 04:20:01;;;;;;;15.63;9.57;;;14.50;99.90;;;;;;4977375;28;20053;-63
2022/06/06 04:22:36;;;;;;;14.13;9.48;;;14.40;99.90;;;;;;5016542;28;20487;-64
2022/06/06 04:25:36;;;;;;;14.98;8.63;;;14.40;99.90;;;;;;5022379;28;20045;-63
2022/06/06 04:28:15;;;;;;;14.98;8.52;;;14.50;99.90;;;;;;5024402;28;20045;-63
2022/06/06 04:31:11;;;;;;;12.63;8.02;;;14.50;99.90;;;;;;5023841;28;20476;-63
2022/06/06 04:33:42;;;;;;;;;;;14.60;99.90;;;;;;5024363;28;20364;-64
2022/06/06 04:36:52;;;;;;;12.95;8.32;;;14.40;99.90;;;;;;5023331;28;20345;-64
2022/06/06 04:39:37;;;;;;;14.32;9.00;;;14.60;99.90;;;;;;5013155;28;20052;-64
2022/06/06 04:42:33;;;;;;;16.50;9.60;;;14.50;99.90;;;;;;5022381;28;20052;-64
2022/06/06 04:44:59;;;;;;;19.30;10.65;;;;;;;;;;5014937;28;20296;-65
2022/06/06 04:47:35;;;;;;;18.45;11.07;;;14.30;99.90;;;;;;5021291;28;20060;-62
2022/06/06 04:50:07;;;;;;;22.20;12.63;;;14.40;99.90;;;;;;5024002;28;20149;-64
2022/06/06 04:52:39;;;;;;;23.42;13.90;;;14.40;99.90;;;;;;5018116;28;20053;-64
2022/06/06 04:55:10;;;;;;;30.95;15.07;;;14.50;99.90;;;;;;5020748;28;20045;-64
2022/06/06 04:57:37;;;;;;;27.75;15.40;;;14.20;99.90;;;;;;5041556;28;20057;-65
2022/06/06 05:00:05;;;;;;;22.58;13.82;;;14.40;99.90;;;;;;5024226;28;20052;-64
2022/06/06 05:02:33;;;;;;;23.73;14.55;;;14.40;99.90;;;;;;5023882;28;20048;-64
2022/06/06 05:04:59;;;;;;;31.40;16.85;;;14.40;99.90;;;;;;5042512;28;20048;-64
2022/06/06 05:07:34;;;;;;;25.55;14.80;;;14.20;99.90;;;;;;5030776;28;20419;-63
2022/06/06 05:10:26;;;;;;;23.80;14.60;;;14.40;99.90;;;;;;5042156;28;20568;-65
2022/06/06 05:13:29;;;;;;;29.08;14.90;;;14.50;99.90;;;;;;5022161;28;20041;-65
2022/06/06 05:15:55;;;;;;;29.25;15.43;;;;;;;;;;5011243;28;20044;-63
2022/06/06 05:18:33;;;;;;;26.48;16.45;;;14.60;99.90;;;;;;5025138;28;20105;-64
2022/06/06 05:20:59;;;;;;;25.73;14.90;;;;;;;;;;5028088;28;20136;-64
2022/06/06 05:23:43;;;;;;;26.30;16.27;;;14.40;99.90;;;;;;5028160;28;20234;-65
2022/06/06 05:26:35;;;;;;;24.00;16.05;;;14.50;99.90;;;;;;5027855;28;20048;-65
2022/06/06 05:29:01;;;;;;;22.25;14.85;;;;;;;;;;5019026;28;20087;-63
2022/06/06 05:31:55;;;;;;;25.13;15.48;;;14.60;99.90;;;;;;5027460;28;20503;-63
2022/06/06 05:34:33;;;;;;;22.13;15.55;;;14.50;99.90;;;;;;5028441;28;20048;-64
2022/06/06 05:37:15;;;;;;;24.60;16.58;;;14.10;99.90;;;;;;5027066;28;20391;-63
2022/06/06 05:40:15;;;;;;;22.33;15.50;;;14.80;99.90;;;;;;5045511;28;20495;-64
2022/06/06 05:43:08;;;;;;;20.23;14.25;;;14.50;99.90;;;;;;5026677;28;20569;-62
2022/06/06 05:45:52;;;;;;;23.52;13.70;;;14.30;99.90;;;;;;5026743;28;20037;-64
2022/06/06 05:48:36;;;;;;;19.27;13.10;;;14.40;99.90;;;;;;5021483;28;20422;-65
2022/06/06 05:51:36;;;;;;;17.92;12.52;;;14.30;99.90;;;;;;5041670;28;20138;-63
2022/06/06 05:54:11;;;;;;;16.92;11.77;;;14.40;99.90;;;;;;5028367;28;20047;-64
2022/06/06 05:57:05;;;;;;;18.58;12.25;;;14.30;99.90;;;;;;5028970;28;20053;-62
2022/06/06 05:59:59;;;;;;;17.08;11.43;;;14.30;99.90;;;;;;5022338;28;20495;-64
2022/06/06 06:02:54;;;;;;;18.30;11.10;;;14.40;99.90;;;;;;5045395;28;20157;-64
2022/06/06 06:05:31;;;;;;;17.00;10.80;;;14.40;99.90;;;;;;5039529;28;20781;-64
2022/06/06 06:08:18;;;;;;;14.00;9.45;;;14.60;99.90;;;;;;5027034;28;20048;-64
2022/06/06 06:10:57;;;;;;;14.82;9.75;;;14.30;99.90;;;;;;5025180;28;20445;-63
2022/06/06 06:13:57;;;;;;;11.32;8.13;;;14.40;99.90;;;;;;5025306;28;20142;-64
2022/06/06 06:16:27;;;;;;;12.45;7.60;;;15.60;99.90;;;;;;5042562;28;20075;-64
2022/06/06 06:19:01;;;;;;;9.57;7.00;;;14.40;99.90;;;;;;5017946;28;20655;-64
2022/06/06 06:21:36;;;;;;;11.88;7.00;;;14.40;99.90;;;;;;5042335;28;20045;-64
2022/06/06 06:24:16;;;;;;;9.32;6.85;;;14.60;99.90;;;;;;5027670;28;20098;-64
2022/06/06 06:26:43;;;;;;;11.02;6.60;;;14.50;99.90;;;;;;5028302;28;20564;-64
2022/06/06 06:29:09;;;;;;;10.20;6.55;;;14.50;99.90;;;;;;5025917;28;20049;-64
2022/06/06 06:32:13;;;;;;;9.63;6.50;;;14.50;99.90;;;;;;5041412;28;20128;-64
2022/06/06 06:34:47;;;;;;;11.38;6.60;;;14.40;99.90;;;;;;5029074;28;20055;-65
2022/06/06 06:37:40;;;;;;;8.90;6.63;;;14.50;99.90;;;;;;5045666;28;20044;-64
2022/06/06 06:40:43;;;;;;;11.52;6.45;;;14.60;99.90;;;;;;5030492;28;20045;-64
2022/06/06 06:43:26;;;;;;;14.02;6.90;;;14.80;99.90;;;;;;5007607;28;20100;-64
2022/06/06 06:45:57;;;;;;;14.05;7.20;;;15.10;99.90;;;;;;5024417;28;20047;-65
2022/06/06 06:48:30;;;;;;;11.25;6.63;;;15.10;99.90;;;;;;5025548;28;20077;-65
2022/06/06 06:50:59;;;;;;;11.18;6.50;;;14.80;99.90;;;;;;5037692;28;20041;-64
2022/06/06 06:53:40;;;;;;;12.15;6.88;;;15.10;99.90;;;;;;5015287;28;20566;-64
2022/06/06 06:56:17;;;;;;;9.32;5.93;;;15.10;99.90;;;;;;5014100;28;20065;-64
2022/06/06 06:59:13;;;;;;;9.45;5.85;;;15.30;99.90;;;;;;5027826;28;20061;-64
2022/06/06 07:10:58;;;;;;;4.68;2.17;;;15.40;99.90;;;;;;5024051;28;20511;-65
2022/06/06 07:13:24;;;;;;;6.18;2.30;;;;;;;;;;5016452;28;20041;-65
2022/06/06 07:16:02;;;;;;;3.95;2.00;;;15.40;99.90;;;;;;5019560;28;20056;-64
2022/06/06 07:18:32;;;;;;;3.75;2.33;;;15.10;99.90;;;;;;5039590;28;20045;-64
2022/06/06 07:21:00;;;;;;;3.92;1.92;;;15.30;99.90;;;;;;5017218;28;20499;-64
2022/06/06 07:23:31;;;;;;;3.50;2.28;;;15.30;99.90;;;;;;5021117;28;20297;-64
2022/06/06 07:25:59;;;;;;;4.45;3.08;;;15.20;99.90;;;;;;5040076;28;20037;-64
2022/06/06 07:28:24;;;;;;;7.65;4.18;;;15.20;99.90;;;;;;5015722;28;20488;-64
2022/06/06 07:31:02;;;;;;;6.90;3.42;;;15.30;99.90;;;;;;5018864;28;20040;-64
2022/06/06 07:33:39;;;;;;;8.65;3.47;;;15.40;99.90;;;;;;5019722;28;20415;-64
2022/06/06 07:36:19;;;;;;;7.22;4.32;;;15.20;99.90;;;;;;5024913;28;20170;-64
2022/06/06 07:39:06;;;;;;;6.07;4.13;;;15.30;99.90;;;;;;5037725;28;20045;-64
2022/06/06 07:41:40;;;;;;;9.32;4.60;;;15.70;99.90;;;;;;5022827;28;20076;-65
2022/06/06 07:44:33;;;;;;;8.98;4.68;;;15.70;99.90;;;;;;5040479;28;20068;-64
2022/06/06 07:47:05;;;;;;;10.05;5.05;;;16.00;99.90;;;;;;5024427;28;20049;-65
2022/06/06 07:49:49;;;;;;;8.77;5.43;;;16.00;99.90;;;;;;5025259;28;20498;-65
2022/06/06 07:52:52;;;;;;;11.10;5.17;;;16.20;99.90;;;;;;5042239;28;20076;-65
2022/06/06 07:55:32;;;;;;;11.73;4.55;;;16.10;99.90;;;;;;5024926;28;20053;-66
2022/06/06 07:58:05;;;;;;;7.97;4.57;;;16.00;99.90;;;;;;5031541;28;20878;-65
2022/06/06 08:00:31;;;;;;;9.55;5.28;;;;;;;;;;5023788;28;20049;-65
2022/06/06 08:03:02;;;;;;;11.68;4.75;;;16.00;99.90;;;;;;5037267;28;20110;-65
2022/06/06 08:05:46;;;;;;;7.00;3.80;;;16.10;99.90;;;;;;5017551;28;20165;-65
2022/06/06 08:08:31;;;;;;;7.47;3.25;;;16.10;99.90;;;;;;5018402;28;20081;-66
2022/06/06 08:11:17;;;;;;;8.48;3.85;;;16.50;99.90;;;;;;5026453;28;20045;-66
2022/06/06 08:14:09;;;;;;;10.77;4.10;;;16.40;99.90;;;;;;5019026;28;20041;-67
2022/06/06 08:16:41;;;;;;;7.47;3.50;;;16.50;99.90;;;;;;5010936;28;20048;-66
2022/06/06 08:19:26;;;;;;;6.57;3.45;;;16.60;99.90;;;;;;5033172;28;20044;-67
2022/06/06 08:21:52;;;;;;;7.40;3.50;;;;;;;;;;5017582;28;20049;-66
2022/06/06 08:24:29;;;;;;;6.13;3.13;;;16.80;99.90;;;;;;5030527;28;20048;-66
2022/06/06 08:26:58;;;;;;;6.65;2.47;;;17.00;99.90;;;;;;5030960;28;20045;-67
2022/06/06 08:29:24;;;;;;;6.00;2.53;;;16.90;99.90;;;;;;5014630;28;20069;-66
2022/06/06 08:31:50;;;;;;;3.10;1.52;;;17.10;99.90;;;;;;5016382;28;20475;-66
2022/06/06 08:34:15;;;;;;;5.63;1.73;;;17.10;99.90;;;;;;5019240;28;20048;-67
2022/06/06 08:37:04;;;;;;;6.32;2.05;;;17.20;99.90;;;;;;5039249;28;20033;-65
2022/06/06 08:39:55;;;;;;;8.82;1.90;;;17.10;99.90;;;;;;5022441;28;20484;-67
2022/06/06 08:42:29;;;;;;;9.05;2.33;;;17.20;99.90;;;;;;5022546;28;20120;-66
2022/06/06 08:45:26;;;;;;;3.58;2.08;;;17.20;99.90;;;;;;5034952;28;20226;-65
2022/06/06 08:48:09;;;;;;;8.40;1.63;;;17.20;99.90;;;;;;5016492;28;20053;-67
2022/06/06 08:50:46;;;;;;;6.43;1.65;;;17.30;99.90;;;;;;5025734;28;20041;-69
2022/06/06 08:53:18;;;;;;;5.85;1.80;;;17.20;99.90;;;;;;5017206;28;20517;-66
2022/06/06 08:56:19;;;;;;;4.65;1.95;;;17.20;99.90;;;;;;5041860;28;20166;-66
2022/06/06 08:59:04;;;;;;;5.28;1.48;;;17.20;99.90;;;;;;4925698;29;20051;-65
2022/06/06 09:01:58;;;;;;;5.13;1.80;;;17.30;99.90;;;;;;5016006;28;20080;-65
2022/06/06 09:04:42;;;;;;;6.60;1.63;;;17.50;99.90;;;;;;5022315;28;20051;-66
2022/06/06 09:07:13;;;;;;;3.70;1.67;;;17.60;99.90;;;;;;5031513;28;20107;-65
2022/06/06 09:09:55;;;;;;;5.75;2.33;;;17.90;99.90;;;;;;5039995;28;20041;-67
2022/06/06 09:12:40;;;;;;;4.22;1.95;;;17.70;99.90;;;;;;5042360;28;20726;-66
2022/06/06 09:15:14;;;;;;;4.93;2.10;;;17.70;99.90;;;;;;5037307;28;20095;-65
2022/06/06 09:18:13;;;;;;;2.75;1.80;;;17.50;99.90;;;;;;5016553;28;20057;-66
2022/06/06 09:21:24;;;;;;;4.35;1.95;;;17.60;99.90;;;;;;5022792;28;20261;-65
2022/06/06 09:24:44;;;;;;;5.15;1.88;;;17.70;99.90;;;;;;5022540;28;20064;-66
2022/06/06 09:27:26;;;;;;;4.15;1.58;;;17.70;99.90;;;;;;4924693;28;20470;-65
2022/06/06 09:30:08;;;;;;;3.67;1.38;;;17.80;99.90;;;;;;4993456;28;20487;-66
2022/06/06 09:32:49;;;;;;;4.45;1.45;;;17.80;99.90;;;;;;5022778;28;20401;-66
2022/06/06 09:35:38;;;;;;;4.13;1.40;;;17.80;99.90;;;;;;5042697;28;20102;-65
2022/06/06 09:38:25;;;;;;;4.95;1.63;;;17.80;99.90;;;;;;5022850;28;20045;-65
2022/06/06 09:40:57;;;;;;;5.65;1.02;;;17.70;99.90;;;;;;5022238;28;20509;-65
2022/06/06 09:43:51;;;;;;;6.45;0.98;;;17.60;99.90;;;;;;5019005;28;20053;-65
2022/06/06 09:46:35;;;;;;;7.20;1.20;;;17.40;99.90;;;;;;5025658;28;20124;-66
2022/06/06 09:49:33;;;;;;;4.72;1.42;;;17.20;99.90;;;;;;5023825;28;20049;-65
2022/06/06 09:52:17;;;;;;;3.58;1.08;;;17.10;99.90;;;;;;5026312;28;20041;-65
2022/06/06 09:59:02;;;;;;;3.92;1.40;;;17.30;99.90;;;;;;5025931;28;20053;-65
2022/06/06 10:02:04;;;;;;;4.55;1.20;;;17.20;99.90;;;;;;4998760;28;20102;-65
2022/06/06 10:04:59;;;;;;;4.45;0.90;;;17.20;99.90;;;;;;5024088;28;20059;-66
2022/06/06 10:07:46;;;;;;;2.97;0.82;;;17.50;99.90;;;;;;5033214;28;20064;-67
2022/06/06 10:10:53;;;;;;;2.58;1.00;;;17.60;99.90;;;;;;5042814;28;20037;-66
2022/06/06 10:13:31;;;;;;;4.78;0.98;;;17.40;99.90;;;;;;5026395;28;20506;-66
2022/06/06 10:16:20;;;;;;;7.28;1.25;;;18.00;99.90;;;;;;5028740;28;20137;-65
2022/06/06 10:19:04;;;;;;;4.65;1.33;;;17.30;99.90;;;;;;5006763;28;20076;-66
2022/06/06 10:21:57;;;;;;;4.57;1.23;;;17.60;99.90;;;;;;5037233;28;20044;-65
2022/06/06 10:25:00;;;;;;;3.45;1.00;;;17.60;99.90;;;;;;5029684;28;20049;-65
2022/06/06 10:28:03;;;;;;;3.17;0.85;;;17.90;99.90;;;;;;5026403;28;20072;-64
2022/06/06 10:30:37;;;;;;;3.20;0.70;;;17.90;99.90;;;;;;5030696;28;20059;-65
2022/06/06 10:33:28;;;;;;;8.67;1.33;;;18.10;99.90;;;;;;5031386;28;20053;-64
2022/06/06 10:36:11;;;;;;;2.40;0.85;;;18.00;99.90;;;;;;5024837;28;20358;-64
2022/06/06 10:38:55;;;;;;;2.45;0.77;;;17.90;99.90;;;;;;5031328;28;20529;-65
2022/06/06 10:41:42;;;;;;;10.25;1.20;;;18.10;99.90;;;;;;5015068;28;20045;-65
2022/06/06 10:44:26;;;;;;;3.55;1.10;;;17.50;99.90;;;;;;5018371;28;20416;-65
2022/06/06 10:47:28;;;;;;;3.42;1.50;;;17.60;99.90;;;;;;5030669;28;20511;-65
2022/06/06 10:50:02;;;;;;;5.88;1.52;;;17.90;99.90;;;;;;5047272;28;20529;-65
2022/06/06 10:52:55;;;;;;;3.28;1.20;;;17.80;99.90;;;;;;5029874;28;20044;-65
2022/06/06 10:56:00;;;;;;;3.28;1.08;;;17.90;99.90;;;;;;5051513;28;20045;-64
2022/06/06 10:58:31;;;;;;;2.70;1.20;;;18.10;99.90;;;;;;5027809;28;20892;-64
2022/06/06 11:01:15;;;;;;;5.40;1.80;;;18.00;99.90;;;;;;5034168;28;20059;-65
2022/06/06 11:04:20;;;;;;;4.45;2.08;;;17.90;99.90;;;;;;5052221;28;20410;-64
2022/06/06 11:07:30;;;;;;;5.97;1.85;;;17.50;99.90;;;;;;5036309;28;20155;-64
2022/06/06 11:10:32;;;;;;;4.93;2.20;;;17.20;99.90;;;;;;5024772;28;20057;-65
2022/06/06 11:13:05;;;;;;;4.93;1.88;;;17.00;99.90;;;;;;5032529;28;20046;-66
2022/06/06 11:15:41;;;;;;;3.92;2.17;;;16.80;99.90;;;;;;5039712;28;20043;-64
2022/06/06 11:18:40;;;;;;;3.63;2.05;;;16.60;99.90;;;;;;5031320;28;20079;-65
2022/06/06 11:21:06;;;;;;;4.85;1.95;;;;;;;;;;5010701;28;20388;-65
2022/06/06 11:23:56;;;;;;;3.45;1.20;;;16.50;99.90;;;;;;5028148;28;20045;-65
2022/06/06 11:26:44;;;;;;;3.25;1.70;;;16.30;99.90;;;;;;5026933;28;20457;-65
2022/06/06 11:29:35;;;;;;;5.60;1.58;;;16.50;99.90;;;;;;5025017;28;20048;-65
2022/06/06 11:32:22;;;;;;;3.90;1.75;;;16.80;99.90;;;;;;5007453;28;20091;-65
2022/06/06 11:35:00;;;;;;;6.32;2.33;;;16.80;99.90;;;;;;5025657;28;20511;-66
2022/06/06 11:37:42;;;;;;;3.95;2.15;;;16.90;99.90;;;;;;5009777;28;20037;-65
2022/06/06 11:40:10;;;;;;;3.47;1.88;;;17.00;99.90;;;;;;5025906;28;20060;-66
2022/06/06 11:42:52;;;;;;;5.13;1.73;;;16.80;99.90;;;;;;5024988;28;20134;-66
2022/06/06 11:45:54;;;;;;;3.58;1.52;;;16.80;99.90;;;;;;5006570;28;20076;-65
2022/06/06 11:48:57;;;;;;;3.45;1.17;;;16.70;99.90;;;;;;5025839;28;20436;-65
2022/06/06 11:51:38;;;;;;;4.60;1.60;;;16.90;99.90;;;;;;5021683;28;20536;-65
2022/06/06 11:54:32;;;;;;;4.20;1.40;;;16.90;99.90;;;;;;5024717;28;20048;-64
2022/06/06 11:57:30;;;;;;;3.37;1.50;;;16.90;99.90;;;;;;5022132;28;20040;-65
2022/06/06 12:00:18;;;;;;;4.38;1.10;;;17.20;99.90;;;;;;5040380;28;20396;-66
2022/06/06 12:03:32;;;;;;;5.15;1.33;;;17.00;99.90;;;;;;5041666;28;20098;-65
2022/06/06 12:06:22;;;;;;;4.00;1.10;;;17.10;99.90;;;;;;5020266;28;20089;-66
2022/06/06 12:09:21;;;;;;;4.20;0.98;;;17.20;99.90;;;;;;5023225;28;20052;-66
2022/06/06 12:12:16;;;;;;;2.67;1.10;;;17.40;99.90;;;;;;4985730;28;20064;-66
2022/06/06 12:15:17;;;;;;;4.80;0.90;;;17.20;99.90;;;;;;5024198;28;20057;-66
2022/06/06 12:18:14;;;;;;;5.00;0.77;;;17.30;99.90;;;;;;4967927;28;20041;-66
2022/06/06 12:21:14;;;;;;;3.67;0.88;;;17.30;99.90;;;;;;5040689;28;20086;-66
2022/06/06 12:24:27;;;;;;;3.30;0.88;;;17.10;99.90;;;;;;5021894;28;20072;-66
2022/06/06 12:27:30;;;;;;;4.82;1.38;;;17.40;99.90;;;;;;5001095;28;20094;-65
2022/06/06 12:30:21;;;;;;;4.18;0.95;;;17.00;99.90;;;;;;5011636;28;20037;-65
2022/06/06 12:32:47;;;;;;;1.83;0.73;;;;;;;;;;5040448;28;20112;-66
2022/06/06 12:35:31;;;;;;;4.80;1.40;;;16.70;99.90;;;;;;5041647;28;20055;-66
2022/06/06 12:38:17;;;;;;;3.00;1.25;;;16.50;99.90;;;;;;5042115;28;20414;-66
2022/06/06 12:41:04;;;;;;;2.92;1.45;;;16.20;99.90;;;;;;5024036;28;20048;-65
2022/06/06 12:43:55;;;;;;;7.75;1.50;;;16.10;99.90;;;;;;5011928;28;20034;-66
2022/06/06 12:46:21;;;;;;;3.28;1.52;;;;;;;;;;5023481;28;20442;-65
2022/06/06 12:49:19;;;;;;;4.30;1.50;;;16.00;99.90;;;;;;5023242;28;20118;-65
2022/06/06 12:52:02;;;;;;;5.80;1.40;;;15.80;99.90;;;;;;5023339;28;20466;-65
2022/06/06 12:58:08;;;;;;;6.95;3.30;;;16.10;99.90;;;;;;5022894;28;20049;-66
2022/06/06 13:03:24;;;;;;;4.18;2.08;;;;;;;;;;5009371;28;20046;-66
2022/06/06 13:06:26;;;;;;;4.25;2.03;;;15.50;99.90;;;;;;4998501;28;20041;-66
2022/06/06 13:09:13;;;;;;;4.53;2.35;;;15.40;99.90;;;;;;5017107;28;20041;-66
2022/06/06 13:12:04;;;;;;;4.05;2.33;;;15.30;99.90;;;;;;5025396;28;20116;-66
2022/06/06 13:14:55;;;;;;;4.88;2.85;;;15.30;99.90;;;;;;5042853;28;20551;-65
2022/06/06 13:17:37;;;;;;;3.55;2.72;;;15.50;99.90;;;;;;5041938;28;20040;-67
2022/06/06 13:20:35;;;;;;;6.13;2.70;;;15.20;99.90;;;;;;5042110;28;20041;-65
2022/06/06 13:23:43;;;;;;;9.93;3.42;;;15.30;99.90;;;;;;5042379;28;20116;-67
2022/06/06 13:26:36;;;;;;;5.18;3.22;;;15.20;99.90;;;;;;5040622;28;20041;-65
2022/06/06 13:29:04;;;;;;;8.50;3.58;;;15.20;99.90;;;;;;5038456;28;20043;-66
2022/06/06 13:32:05;;;;;;;8.95;3.63;;;15.10;99.90;;;;;;5041986;28;20044;-65
2022/06/06 13:34:34;;;;;;;5.07;3.72;;;15.20;99.90;;;;;;5034324;28;20069;-65
2022/06/06 13:37:06;;;;;;;6.05;4.45;;;15.20;99.90;;;;;;5044896;28;20037;-64
2022/06/06 13:39:41;;;;;;;6.45;4.30;;;15.10;99.90;;;;;;5037330;28;20502;-65
2022/06/06 13:42:44;;;;;;;3.90;3.50;;;15.30;99.90;;;;;;5030497;28;20183;-66
2022/06/06 13:45:10;;;;;;;8.00;4.28;;;;;;;;;;5043004;28;20510;-66
2022/06/06 13:48:01;;;;;;;6.50;4.40;;;15.10;99.90;;;;;;5019129;28;20462;-65
2022/06/06 13:51:08;;;;;;;10.60;5.20;;;15.20;99.90;;;;;;5047686;28;20494;-65
2022/06/06 13:54:17;;;;;;;7.78;4.53;;;15.10;99.90;;;;;;4992965;28;20057;-65
2022/06/06 13:57:00;;;;;;;10.35;4.55;;;15.10;99.90;;;;;;5005459;28;20056;-64
2022/06/06 14:00:04;;;;;;;7.75;4.78;;;15.10;99.90;;;;;;5015127;28;20049;-66
2022/06/06 14:02:51;;;;;;;5.32;4.45;;;15.00;99.90;;;;;;4983853;28;20469;-65
2022/06/06 14:05:43;;;;;;;6.97;5.43;;;15.00;99.90;;;;;;5042588;28;20041;-65
2022/06/06 14:08:11;;;;;;;7.20;4.80;;;14.90;99.90;;;;;;5024387;28;20052;-65
2022/06/06 14:10:52;;;;;;;6.68;4.72;;;14.90;99.90;;;;;;5038939;28;20120;-65
2022/06/06 14:13:27;;;;;;;9.15;4.68;;;14.70;99.90;;;;;;5037321;28;20042;-65
2022/06/06 14:15:53;;;;;;;7.05;4.90;;;;;;;;;;5052421;28;20048;-64
2022/06/06 14:18:27;;;;;;;6.13;5.00;;;14.70;99.90;;;;;;5042496;28;20123;-64
2022/06/06 14:20:56;;;;;;;7.82;5.38;;;14.70;99.90;;;;;;5030926;28;20038;-64
2022/06/06 14:23:29;;;;;;;5.35;4.50;;;14.80;99.90;;;;;;5038359;28;20483;-64
2022/06/06 14:26:03;;;;;;;8.07;5.07;;;14.80;99.90;;;;;;5048747;28;20118;-63
2022/06/06 14:28:35;;;;;;;6.70;4.45;;;14.80;99.90;;;;;;5018718;28;20256;-66
2022/06/06 14:31:09;;;;;;;6.25;4.22;;;14.70;99.90;;;;;;5023435;28;20566;-65